Time;durP1;ratioP1;P1;durP2;ratioP2;P2;SDS_P1;SDS_P2;PMS_P1;PMS_P2;Temp;Humidity;BMP_temperature;BMP_pressure;BME280_temperature;BME280_humidity;BME280_pressure;Samples;Min_cycle;Max_cycle;Signal;HPM_P1;HPM_P2
2023/08/17 00:01:52;0.00;0.00;0.62;0.00;0.00;0.62;2.07;1.60;;;31.80;29.70;;;;;;2219808;62;20458;-57
2023/08/17 00:04:36;0.00;0.00;0.62;0.00;0.00;0.62;2.23;1.20;;;31.80;29.70;;;;;;2220401;62;20808;-55
2023/08/17 00:07:21;0.00;0.00;0.62;0.00;0.00;0.62;2.73;1.40;;;31.80;29.70;;;;;;2220571;62;20366;-63
2023/08/17 00:10:08;0.00;0.00;0.62;0.00;0.00;0.62;2.20;1.33;;;31.80;30.20;;;;;;2220667;62;20378;-58
2023/08/17 00:12:52;0.00;0.00;0.62;0.00;0.00;0.62;1.70;1.00;;;31.70;29.60;;;;;;2220584;62;20378;-61
2023/08/17 00:15:37;0.00;0.00;0.62;0.00;0.00;0.62;2.07;1.80;;;31.70;29.60;;;;;;2219881;62;20382;-57
2023/08/17 00:18:21;0.00;0.00;0.62;0.00;0.00;0.62;1.90;1.40;;;31.80;29.70;;;;;;2220885;62;20511;-60
2023/08/17 00:21:06;0.00;0.00;0.62;0.00;0.00;0.62;2.07;1.57;;;31.80;29.70;;;;;;2220302;62;20768;-53
2023/08/17 00:23:51;0.00;0.00;0.62;0.00;0.00;0.62;2.13;1.40;;;31.80;29.70;;;;;;2219340;62;20922;-57
2023/08/17 00:26:37;0.00;0.00;0.62;0.00;0.00;0.62;4.73;1.30;;;31.70;29.70;;;;;;2220779;62;20365;-55
2023/08/17 00:29:21;0.00;0.00;0.62;0.00;0.00;0.62;1.80;1.30;;;31.70;29.70;;;;;;2222912;62;20374;-58
2023/08/17 00:32:06;0.00;0.00;0.62;0.00;0.00;0.62;3.00;1.40;;;31.70;29.70;;;;;;2219750;62;20404;-57
2023/08/17 00:34:50;0.00;0.00;0.62;0.00;0.00;0.62;1.83;1.50;;;31.70;29.70;;;;;;2220318;62;20534;-58
2023/08/17 00:37:35;0.00;0.00;0.62;0.00;0.00;0.62;2.20;1.27;;;31.70;29.70;;;;;;2219197;62;20409;-52
2023/08/17 00:40:20;0.00;0.00;0.62;0.00;0.00;0.62;1.67;1.30;;;31.70;29.70;;;;;;2220778;62;20410;-58
2023/08/17 00:43:07;0.00;0.00;0.62;0.00;0.00;0.62;1.80;1.30;;;31.70;29.70;;;;;;2219930;62;20486;-59
2023/08/17 00:45:53;0.00;0.00;0.62;0.00;0.00;0.62;2.33;1.50;;;31.70;29.70;;;;;;2219161;62;20426;-59
2023/08/17 00:48:37;0.00;0.00;0.62;0.00;0.00;0.62;2.00;1.40;;;31.70;29.70;;;;;;2220385;62;20828;-59
2023/08/17 00:51:23;0.00;0.00;0.62;0.00;0.00;0.62;1.60;1.10;;;31.70;29.70;;;;;;2220188;62;20369;-60
2023/08/17 00:54:08;0.00;0.00;0.62;0.00;0.00;0.62;1.80;1.27;;;31.70;29.70;;;;;;2219000;62;20812;-61
2023/08/17 00:56:54;0.00;0.00;0.62;0.00;0.00;0.62;2.23;1.10;;;31.70;29.70;;;;;;2220055;62;20767;-61
2023/08/17 00:59:40;0.00;0.00;0.62;0.00;0.00;0.62;3.10;1.20;;;31.70;29.70;;;;;;2219858;62;20950;-61
2023/08/17 01:02:25;0.00;0.00;0.62;0.00;0.00;0.62;2.17;1.30;;;31.70;29.70;;;;;;2220082;62;20374;-60
2023/08/17 01:05:10;0.00;0.00;0.62;0.00;0.00;0.62;1.90;1.30;;;31.70;29.70;;;;;;2219836;62;20389;-56
2023/08/17 01:07:55;0.00;0.00;0.62;0.00;0.00;0.62;2.47;1.30;;;31.70;29.70;;;;;;2219360;62;20504;-59
2023/08/17 01:10:55;0.00;0.00;0.62;0.00;0.00;0.62;2.20;1.37;;;31.70;29.70;;;;;;2220210;62;20435;-59
2023/08/17 01:13:49;0.00;0.00;0.62;0.00;0.00;0.62;2.67;1.30;;;31.70;29.80;;;;;;2219763;62;20480;-55
2023/08/17 01:16:42;0.00;0.00;0.62;0.00;0.00;0.62;2.27;1.50;;;31.70;29.80;;;;;;2219434;62;20374;-59
2023/08/17 01:19:28;0.00;0.00;0.62;0.00;0.00;0.62;2.10;1.30;;;31.70;29.80;;;;;;2232250;62;20429;-60
2023/08/17 01:22:14;0.00;0.00;0.62;0.00;0.00;0.62;4.73;1.40;;;31.70;29.80;;;;;;2219217;62;20454;-61
2023/08/17 01:25:00;0.00;0.00;0.62;0.00;0.00;0.62;1.70;1.30;;;31.70;29.80;;;;;;2219765;62;20410;-61
2023/08/17 01:27:46;0.00;0.00;0.62;0.00;0.00;0.62;2.73;1.50;;;31.70;29.80;;;;;;2220513;62;20418;-60
2023/08/17 01:30:38;0.00;0.00;0.62;0.00;0.00;0.62;3.20;1.73;;;31.70;29.80;;;;;;2219566;62;20419;-61
2023/08/17 01:33:30;0.00;0.00;0.62;0.00;0.00;0.62;2.20;1.47;;;31.70;29.80;;;;;;2220193;62;20446;-62
2023/08/17 01:36:22;0.00;0.00;0.62;0.00;0.00;0.62;1.87;1.10;;;31.60;29.70;;;;;;2220197;62;20417;-60
2023/08/17 01:39:08;0.00;0.00;0.62;0.00;0.00;0.62;2.00;1.20;;;31.70;29.80;;;;;;2219726;62;20394;-58
2023/08/17 01:41:56;0.00;0.00;0.62;0.00;0.00;0.62;2.33;1.20;;;31.60;29.70;;;;;;2220416;62;20462;-60
2023/08/17 01:44:41;0.00;0.00;0.62;0.00;0.00;0.62;2.03;1.43;;;31.60;29.70;;;;;;2218674;62;20473;-61
2023/08/17 01:47:26;0.00;0.00;0.62;0.00;0.00;0.62;1.77;1.33;;;31.70;29.80;;;;;;2220389;62;20922;-60
2023/08/17 01:50:10;0.00;0.00;0.62;0.00;0.00;0.62;2.17;1.40;;;31.70;29.80;;;;;;2220690;62;20366;-60
2023/08/17 01:52:55;0.00;0.00;0.62;0.00;0.00;0.62;1.70;1.03;;;31.60;29.80;;;;;;2218865;62;20944;-60
2023/08/17 01:55:39;0.00;0.00;0.62;0.00;0.00;0.62;1.70;1.20;;;31.70;29.90;;;;;;2217607;62;20374;-59
2023/08/17 01:58:26;0.00;0.00;0.62;0.00;0.00;0.62;2.10;1.47;;;31.70;29.80;;;;;;2220402;62;20466;-60
2023/08/17 02:01:11;0.00;0.00;0.62;0.00;0.00;0.62;2.67;1.40;;;31.60;29.80;;;;;;2220096;62;20430;-61
2023/08/17 02:03:56;0.00;0.00;0.62;0.00;0.00;0.62;2.07;1.40;;;31.60;29.80;;;;;;2220023;62;20389;-61
2023/08/17 02:06:40;0.00;0.00;0.62;0.00;0.00;0.62;1.70;1.13;;;31.70;29.90;;;;;;2219005;62;20382;-59
2023/08/17 02:09:25;0.00;0.00;0.62;0.00;0.00;0.62;2.40;1.10;;;31.70;29.90;;;;;;2219911;62;20373;-61
2023/08/17 02:12:09;0.00;0.00;0.62;0.00;0.00;0.62;2.80;1.30;;;31.60;29.80;;;;;;2220074;62;20374;-60
2023/08/17 02:14:55;0.00;0.00;0.62;0.00;0.00;0.62;2.00;1.30;;;31.70;29.90;;;;;;2218552;62;20942;-60
2023/08/17 02:17:39;0.00;0.00;0.62;0.00;0.00;0.62;3.50;1.70;;;31.60;29.80;;;;;;2220421;62;20856;-59
2023/08/17 02:20:24;0.00;0.00;0.62;0.00;0.00;0.62;2.37;1.43;;;31.70;29.90;;;;;;2220398;62;20855;-61
2023/08/17 02:23:08;0.00;0.00;0.62;0.00;0.00;0.62;4.07;1.80;;;31.60;29.90;;;;;;2219291;62;20378;-61
2023/08/17 02:25:53;0.00;0.00;0.62;0.00;0.00;0.62;2.00;1.47;;;31.60;29.90;;;;;;2220499;62;20374;-60
2023/08/17 02:28:39;0.00;0.00;0.62;0.00;0.00;0.62;2.47;1.60;;;31.60;29.90;;;;;;2219584;62;20486;-61
2023/08/17 02:31:26;0.00;0.00;0.62;0.00;0.00;0.62;2.00;1.40;;;31.60;29.90;;;;;;2221005;62;20378;-60
2023/08/17 02:34:10;0.00;0.00;0.62;0.00;0.00;0.62;2.53;1.33;;;31.60;29.90;;;;;;2220645;62;20422;-60
2023/08/17 02:36:55;0.00;0.00;0.62;0.00;0.00;0.62;2.20;1.63;;;31.60;29.90;;;;;;2220024;62;20427;-61
2023/08/17 02:39:41;0.00;0.00;0.62;0.00;0.00;0.62;2.00;1.40;;;31.60;29.90;;;;;;2221237;62;20401;-61
2023/08/17 02:42:25;0.00;0.00;0.62;0.00;0.00;0.62;2.53;1.33;;;31.60;29.90;;;;;;2220739;62;20847;-61
2023/08/17 02:45:12;0.00;0.00;0.62;0.00;0.00;0.62;2.00;1.40;;;31.60;29.90;;;;;;2219455;62;20842;-61
2023/08/17 02:47:58;0.00;0.00;0.62;0.00;0.00;0.62;2.73;1.80;;;31.60;29.90;;;;;;2220785;62;20458;-62
2023/08/17 02:50:43;0.00;0.00;0.62;0.00;0.00;0.62;2.10;1.40;;;31.60;30.00;;;;;;2220294;62;20525;-60
2023/08/17 02:53:28;0.00;0.00;0.62;0.00;0.00;0.62;2.53;1.50;;;31.60;30.00;;;;;;2220308;62;20430;-60
2023/08/17 02:56:13;0.00;0.00;0.62;0.00;0.00;0.62;2.10;1.60;;;31.60;30.00;;;;;;2220933;62;20419;-61
2023/08/17 02:58:57;0.00;0.00;0.62;0.00;0.00;0.62;2.17;1.60;;;31.60;30.00;;;;;;2219425;62;20406;-56
2023/08/17 03:01:44;0.00;0.00;0.62;0.00;0.00;0.62;3.67;1.70;;;31.60;30.00;;;;;;2221061;62;20914;-57
2023/08/17 03:04:33;0.00;0.00;0.62;0.00;0.00;0.62;2.13;1.50;;;31.60;30.60;;;;;;2219942;62;20442;-57
2023/08/17 03:07:18;0.00;0.00;0.62;0.00;0.00;0.62;3.60;1.87;;;31.60;30.00;;;;;;2220302;62;20398;-56
2023/08/17 03:10:04;0.00;0.00;0.62;0.00;0.00;0.62;4.73;2.10;;;31.60;30.00;;;;;;2220837;62;20450;-58
2023/08/17 03:12:48;0.00;0.00;0.62;0.00;0.00;0.62;3.03;1.53;;;31.60;30.00;;;;;;2219846;62;21020;-58
2023/08/17 03:15:32;0.00;0.00;0.62;0.00;0.00;0.62;2.83;1.37;;;31.60;30.00;;;;;;2220872;62;20880;-63
2023/08/17 03:18:17;0.00;0.00;0.62;0.00;0.00;0.62;3.40;1.50;;;31.60;30.00;;;;;;2219787;62;20800;-58
2023/08/17 03:21:03;0.00;0.00;0.62;0.00;0.00;0.62;2.83;1.50;;;31.60;30.00;;;;;;2219436;62;20833;-61
2023/08/17 03:23:48;0.00;0.00;0.62;0.00;0.00;0.62;2.17;1.50;;;31.60;30.70;;;;;;2220053;62;20449;-60
2023/08/17 03:26:33;0.00;0.00;0.62;0.00;0.00;0.62;2.10;1.47;;;31.50;30.00;;;;;;2220266;62;20845;-53
2023/08/17 03:29:18;0.00;0.00;0.62;0.00;0.00;0.62;2.17;1.53;;;31.50;30.00;;;;;;2219869;62;20790;-55
2023/08/17 03:32:03;0.00;0.00;0.62;0.00;0.00;0.62;2.63;1.70;;;31.50;30.00;;;;;;2220718;62;20815;-57
2023/08/17 03:34:48;0.00;0.00;0.62;0.00;0.00;0.62;2.97;1.80;;;31.50;30.00;;;;;;2219789;62;20996;-58
2023/08/17 03:37:33;0.00;0.00;0.62;0.00;0.00;0.62;3.30;1.70;;;31.60;30.10;;;;;;2220844;62;20370;-58
2023/08/17 03:40:18;0.00;0.00;0.62;0.00;0.00;0.62;2.33;1.50;;;31.60;30.10;;;;;;2220049;62;20815;-56
2023/08/17 03:43:03;0.00;0.00;0.62;0.00;0.00;0.62;3.53;1.57;;;31.50;30.10;;;;;;2219668;62;20373;-59
2023/08/17 03:45:49;0.00;0.00;0.62;0.00;0.00;0.62;2.17;1.30;;;31.50;30.20;;;;;;2220270;62;20915;-61
2023/08/17 03:48:33;0.00;0.00;0.62;0.00;0.00;0.62;2.13;1.80;;;31.50;30.10;;;;;;2220775;62;20431;-57
2023/08/17 03:51:18;0.00;0.00;0.62;0.00;0.00;0.62;3.07;1.63;;;31.50;30.10;;;;;;2219883;62;20515;-58
2023/08/17 03:54:05;0.00;0.00;0.62;0.00;0.00;0.62;2.80;1.60;;;31.50;30.10;;;;;;2220021;62;20421;-57
2023/08/17 03:56:49;0.00;0.00;0.62;0.00;0.00;0.62;2.27;1.30;;;31.50;30.20;;;;;;2220360;62;20426;-55
2023/08/17 03:59:34;0.00;0.00;0.62;0.00;0.00;0.62;2.83;1.60;;;31.50;30.20;;;;;;2220646;62;20439;-56
2023/08/17 04:02:19;0.00;0.00;0.62;0.00;0.00;0.62;2.10;1.60;;;31.50;30.20;;;;;;2220443;62;20382;-58
2023/08/17 04:05:04;0.00;0.00;0.62;0.00;0.00;0.62;2.53;1.83;;;31.50;30.20;;;;;;2219656;62;20439;-56
2023/08/17 04:07:49;0.00;0.00;0.62;0.00;0.00;0.62;3.43;1.90;;;31.50;30.20;;;;;;2220173;62;20511;-59
2023/08/17 04:10:35;0.00;0.00;0.62;0.00;0.00;0.62;2.17;1.67;;;31.50;30.20;;;;;;2220311;62;20361;-60
2023/08/17 04:13:19;0.00;0.00;0.62;0.00;0.00;0.62;2.00;1.50;;;31.50;30.30;;;;;;2218982;62;20378;-60
2023/08/17 04:16:04;0.00;0.00;0.62;0.00;0.00;0.62;2.10;1.57;;;31.50;30.30;;;;;;2220679;62;20446;-63
2023/08/17 04:18:48;0.00;0.00;0.62;0.00;0.00;0.62;1.60;1.37;;;31.50;30.30;;;;;;2220826;62;21044;-56
2023/08/17 04:21:33;0.00;0.00;0.62;0.00;0.00;0.62;2.93;1.60;;;31.50;30.30;;;;;;2219274;62;20370;-56
2023/08/17 04:24:18;0.00;0.00;0.62;0.00;0.00;0.62;2.27;1.57;;;31.50;30.30;;;;;;2219745;62;20410;-52
2023/08/17 04:27:04;0.00;0.00;0.62;0.00;0.00;0.62;2.30;1.57;;;31.50;30.40;;;;;;2219359;62;20453;-56
2023/08/17 04:29:49;0.00;0.00;0.62;0.00;0.00;0.62;3.13;1.70;;;31.40;30.40;;;;;;2220151;62;20387;-52
2023/08/17 04:32:34;0.00;0.00;0.62;0.00;0.00;0.62;1.80;1.33;;;31.40;30.40;;;;;;2219916;62;20419;-58
2023/08/17 04:35:19;0.00;0.00;0.62;0.00;0.00;0.62;1.90;1.50;;;31.40;30.40;;;;;;2219330;62;20967;-57
2023/08/17 04:38:04;0.00;0.00;0.62;0.00;0.00;0.62;1.97;1.60;;;31.40;30.40;;;;;;2220745;62;20374;-59
2023/08/17 04:40:49;0.00;0.00;0.62;0.00;0.00;0.62;2.10;1.63;;;31.40;30.40;;;;;;2220222;62;20932;-58
2023/08/17 04:43:35;0.00;0.00;0.62;0.00;0.00;0.62;2.27;1.57;;;31.40;30.40;;;;;;2219039;62;20398;-57
2023/08/17 04:46:20;0.00;0.00;0.62;0.00;0.00;0.62;2.00;1.30;;;31.40;30.40;;;;;;2220253;62;20374;-57
2023/08/17 04:49:06;0.00;0.00;0.62;0.00;0.00;0.62;2.00;1.50;;;31.40;30.50;;;;;;2219302;62;20366;-58
2023/08/17 04:51:50;0.00;0.00;0.62;0.00;0.00;0.62;2.73;1.50;;;31.40;30.50;;;;;;2220402;62;20369;-59
2023/08/17 04:54:35;0.00;0.00;0.62;0.00;0.00;0.62;1.67;1.27;;;31.40;30.50;;;;;;2220349;62;20397;-57
2023/08/17 04:57:20;0.00;0.00;0.62;0.00;0.00;0.62;1.90;1.50;;;31.40;30.60;;;;;;2218851;62;20447;-56
2023/08/17 05:00:10;0.00;0.00;0.62;0.00;0.00;0.62;1.97;1.37;;;31.40;30.60;;;;;;2220104;62;20419;-58
2023/08/17 05:02:55;0.00;0.00;0.62;0.00;0.00;0.62;2.27;1.37;;;31.30;30.50;;;;;;2220679;62;20382;-56
2023/08/17 05:05:39;0.00;0.00;0.62;0.00;0.00;0.62;2.27;1.70;;;31.40;30.60;;;;;;2219375;62;20434;-56
2023/08/17 05:08:28;0.00;0.00;0.62;0.00;0.00;0.62;2.40;1.53;;;31.40;30.60;;;;;;2220256;62;20410;-60
2023/08/17 05:11:14;0.00;0.00;0.62;0.00;0.00;0.62;1.63;1.50;;;31.30;30.60;;;;;;2219088;62;20857;-55
2023/08/17 05:13:58;0.00;0.00;0.62;0.00;0.00;0.62;2.03;1.53;;;31.30;30.60;;;;;;2219785;62;20392;-61
2023/08/17 05:16:44;0.00;0.00;0.62;0.00;0.00;0.62;1.70;1.57;;;31.30;30.60;;;;;;2219891;62;20373;-53
2023/08/17 05:19:29;0.00;0.00;0.62;0.00;0.00;0.62;2.40;1.70;;;31.30;30.60;;;;;;2219230;62;20401;-57
2023/08/17 05:22:14;0.00;0.00;0.62;0.00;0.00;0.62;2.10;1.50;;;31.30;30.60;;;;;;2220286;62;20373;-59
2023/08/17 05:24:59;0.00;0.00;0.62;0.00;0.00;0.62;1.93;1.50;;;31.30;30.60;;;;;;2219698;62;20523;-55
2023/08/17 05:27:44;0.00;0.00;0.62;0.00;0.00;0.62;3.00;1.50;;;31.30;30.60;;;;;;2219145;62;20374;-57
2023/08/17 05:30:29;0.00;0.00;0.62;0.00;0.00;0.62;2.03;1.40;;;31.30;30.60;;;;;;2220120;62;20366;-56
2023/08/17 05:33:15;0.00;0.00;0.62;0.00;0.00;0.62;1.57;1.23;;;31.30;30.70;;;;;;2219797;62;20374;-58
2023/08/17 05:35:59;0.00;0.00;0.62;0.00;0.00;0.62;2.13;1.40;;;31.30;30.70;;;;;;2220209;62;20378;-56
2023/08/17 05:38:44;0.00;0.00;0.62;0.00;0.00;0.62;1.73;1.63;;;31.30;30.70;;;;;;2220404;62;20968;-61
2023/08/17 05:41:28;0.00;0.00;0.62;0.00;0.00;0.62;2.20;1.37;;;31.30;30.80;;;;;;2219727;62;20370;-60
2023/08/17 05:44:14;0.00;0.00;0.62;0.00;0.00;0.62;2.77;1.80;;;31.30;30.80;;;;;;2219248;62;20459;-59
2023/08/17 05:47:00;0.00;0.00;0.62;0.00;0.00;0.62;2.90;1.43;;;31.30;30.80;;;;;;2219828;62;20397;-59
2023/08/17 05:49:46;0.00;0.00;0.62;0.00;0.00;0.62;2.20;1.70;;;31.30;30.80;;;;;;2218949;62;20471;-61
2023/08/17 05:52:31;0.00;0.00;0.62;0.00;0.00;0.62;2.30;1.90;;;31.30;30.80;;;;;;2220525;62;20895;-59
2023/08/17 05:55:17;0.00;0.00;0.62;0.00;0.00;0.62;2.63;1.60;;;31.30;30.80;;;;;;2219938;62;20960;-58
2023/08/17 05:58:03;0.00;0.00;0.62;0.00;0.00;0.62;2.20;1.53;;;31.30;30.80;;;;;;2220575;62;20926;-59
2023/08/17 06:00:49;0.00;0.00;0.62;0.00;0.00;0.62;4.17;1.93;;;31.30;30.80;;;;;;2220345;62;20400;-56
2023/08/17 06:03:34;0.00;0.00;0.62;0.00;0.00;0.62;1.60;1.30;;;31.30;30.80;;;;;;2219383;62;20832;-59
2023/08/17 06:06:20;0.00;0.00;0.62;0.00;0.00;0.62;2.00;1.60;;;31.30;30.80;;;;;;2221012;62;20385;-62
2023/08/17 06:09:07;0.00;0.00;0.62;0.00;0.00;0.62;2.03;1.60;;;31.30;30.90;;;;;;2221011;62;20362;-61
2023/08/17 06:11:52;0.00;0.00;0.62;0.00;0.00;0.62;1.97;1.53;;;31.20;30.80;;;;;;2220280;62;20454;-61
2023/08/17 06:14:36;0.00;0.00;0.62;0.00;0.00;0.62;2.03;1.70;;;31.30;30.90;;;;;;2220669;62;20397;-60
2023/08/17 06:17:21;0.00;0.00;0.62;0.00;0.00;0.62;2.43;1.50;;;31.30;30.90;;;;;;2220925;62;20713;-60
2023/08/17 06:20:09;0.00;0.00;0.62;0.00;0.00;0.62;2.00;1.50;;;31.30;30.90;;;;;;2220414;62;20397;-60
2023/08/17 06:22:55;0.00;0.00;0.62;0.00;0.00;0.62;1.90;1.67;;;31.20;30.90;;;;;;2221022;62;20382;-61
2023/08/17 06:25:40;0.00;0.00;0.62;0.00;0.00;0.62;2.13;1.93;;;31.30;30.90;;;;;;2220105;62;20934;-60
2023/08/17 06:28:25;0.00;0.00;0.62;0.00;0.00;0.62;1.83;1.43;;;31.30;30.90;;;;;;2220924;62;20872;-60
2023/08/17 06:31:10;0.00;0.00;0.62;0.00;0.00;0.62;1.93;1.47;;;31.20;30.90;;;;;;2221079;62;20369;-60
2023/08/17 06:33:54;0.00;0.00;0.62;0.00;0.00;0.62;2.37;1.57;;;31.30;30.90;;;;;;2219692;62;20397;-60
2023/08/17 06:36:39;0.00;0.00;0.62;0.00;0.00;0.62;2.50;2.00;;;31.20;30.90;;;;;;2221063;62;21074;-61
2023/08/17 06:39:25;0.00;0.00;0.62;0.00;0.00;0.62;2.17;1.60;;;31.20;31.00;;;;;;2220864;62;20947;-58
2023/08/17 06:42:10;0.00;0.00;0.62;0.00;0.00;0.62;3.03;1.80;;;31.20;31.00;;;;;;2220336;62;20951;-57
2023/08/17 06:44:54;0.00;0.00;0.62;0.00;0.00;0.62;2.70;1.57;;;31.20;30.90;;;;;;2220498;62;20423;-57
2023/08/17 06:47:39;0.00;0.00;0.62;0.00;0.00;0.62;2.00;1.80;;;31.20;31.00;;;;;;2220205;62;20466;-57
2023/08/17 06:50:24;0.00;0.00;0.62;0.00;0.00;0.62;2.53;1.70;;;31.20;31.00;;;;;;2220516;62;20370;-59
2023/08/17 06:53:08;0.00;0.00;0.62;0.00;0.00;0.62;2.77;1.90;;;31.20;31.00;;;;;;2220470;62;20970;-55
2023/08/17 06:55:54;0.00;0.00;0.62;0.00;0.00;0.62;2.30;1.30;;;31.20;31.00;;;;;;2220267;62;20395;-59
2023/08/17 06:58:39;0.00;0.00;0.62;0.00;0.00;0.62;2.77;1.77;;;31.20;31.00;;;;;;2220865;62;20434;-59
2023/08/17 07:01:23;0.00;0.00;0.62;0.00;0.00;0.62;1.90;1.47;;;31.20;31.00;;;;;;2220859;62;20381;-56
2023/08/17 07:04:08;0.00;0.00;0.62;0.00;0.00;0.62;2.10;1.40;;;31.20;31.00;;;;;;2219863;62;20542;-58
2023/08/17 07:06:53;0.00;0.00;0.62;0.00;0.00;0.62;2.03;1.53;;;31.20;31.00;;;;;;2221120;62;20430;-59
2023/08/17 07:09:38;0.00;0.00;0.62;0.00;0.00;0.62;1.80;1.60;;;31.20;31.00;;;;;;2220054;62;20378;-57
2023/08/17 07:12:24;0.00;0.00;0.62;0.00;0.00;0.62;2.37;1.70;;;31.20;31.10;;;;;;2221134;62;20409;-56
2023/08/17 07:15:10;0.00;0.00;0.62;0.00;0.00;0.62;2.20;1.80;;;31.20;31.10;;;;;;2220541;62;20926;-51
2023/08/17 07:17:55;0.00;0.00;0.62;0.00;0.00;0.62;1.93;1.73;;;31.20;31.10;;;;;;2219983;62;20466;-54
2023/08/17 07:20:39;0.00;0.00;0.62;0.00;0.00;0.62;2.40;1.80;;;31.20;31.10;;;;;;2220724;62;20394;-57
2023/08/17 07:23:24;0.00;0.00;0.62;0.00;0.00;0.62;2.10;1.60;;;31.20;31.10;;;;;;2219984;62;20369;-56
2023/08/17 07:26:08;0.00;0.00;0.62;0.00;0.00;0.62;2.23;1.73;;;31.20;31.10;;;;;;2219870;62;20370;-54
2023/08/17 07:28:54;0.00;0.00;0.62;0.00;0.00;0.62;1.77;1.43;;;31.20;31.10;;;;;;2220675;62;20381;-55
2023/08/17 07:31:39;0.00;0.00;0.62;0.00;0.00;0.62;1.80;1.40;;;31.20;31.10;;;;;;2220619;62;20851;-57
2023/08/17 07:34:23;0.00;0.00;0.62;0.00;0.00;0.62;1.80;1.60;;;31.20;31.10;;;;;;2220364;62;20393;-59
2023/08/17 07:37:08;0.00;0.00;0.62;0.00;0.00;0.62;2.17;1.60;;;31.20;31.10;;;;;;2220786;62;20394;-58
2023/08/17 07:39:52;0.00;0.00;0.62;0.00;0.00;0.62;3.03;1.70;;;31.20;31.20;;;;;;2219577;62;20406;-56
2023/08/17 07:42:37;0.00;0.00;0.62;0.00;0.00;0.62;2.10;1.87;;;31.20;31.20;;;;;;2220608;62;20387;-54
2023/08/17 07:45:23;0.00;0.00;0.62;0.00;0.00;0.62;2.00;1.30;;;31.20;31.20;;;;;;2220096;62;20397;-52
2023/08/17 07:48:08;0.00;0.00;0.62;0.00;0.00;0.62;1.80;1.43;;;31.20;31.20;;;;;;2219637;62;20495;-59
2023/08/17 07:50:53;0.00;0.00;0.62;0.00;0.00;0.62;2.10;1.60;;;31.20;31.20;;;;;;2220825;62;20381;-56
2023/08/17 07:53:39;0.00;0.00;0.62;0.00;0.00;0.62;1.90;1.70;;;31.20;31.20;;;;;;2220203;62;20458;-57
2023/08/17 07:56:24;0.00;0.00;0.62;0.00;0.00;0.62;3.17;1.90;;;31.20;31.30;;;;;;2220722;62;20399;-58
2023/08/17 07:59:08;0.00;0.00;0.62;0.00;0.00;0.62;2.40;1.47;;;31.20;31.30;;;;;;2220668;62;20390;-58
2023/08/17 08:01:54;0.00;0.00;0.62;0.00;0.00;0.62;2.20;1.73;;;31.20;31.30;;;;;;2219915;62;20783;-56
2023/08/17 08:04:38;0.00;0.00;0.62;0.00;0.00;0.62;2.10;1.73;;;31.20;31.30;;;;;;2220524;62;20393;-59
2023/08/17 08:07:23;0.00;0.00;0.62;0.00;0.00;0.62;2.60;1.57;;;31.20;31.30;;;;;;2220922;62;20374;-56
2023/08/17 08:10:08;0.00;0.00;0.62;0.00;0.00;0.62;2.10;1.70;;;31.20;31.30;;;;;;2219902;62;20374;-58
2023/08/17 08:12:53;0.00;0.00;0.62;0.00;0.00;0.62;1.87;1.50;;;31.20;31.30;;;;;;2220831;62;20374;-58
2023/08/17 08:15:37;0.00;0.00;0.62;0.00;0.00;0.62;2.20;1.73;;;31.20;31.30;;;;;;2220745;62;20373;-58
2023/08/17 08:18:23;0.00;0.00;0.62;0.00;0.00;0.62;2.20;1.93;;;31.20;31.30;;;;;;2220000;62;20378;-55
2023/08/17 08:21:08;0.00;0.00;0.62;0.00;0.00;0.62;2.40;1.80;;;31.10;31.30;;;;;;2220747;62;20458;-56
2023/08/17 08:23:52;0.00;0.00;0.62;0.00;0.00;0.62;2.20;1.93;;;31.20;31.30;;;;;;2219293;62;20429;-56
2023/08/17 08:26:37;0.00;0.00;0.62;0.00;0.00;0.62;2.07;1.80;;;31.20;31.30;;;;;;2220775;62;20407;-58
2023/08/17 08:29:21;0.00;0.00;0.62;0.00;0.00;0.62;2.47;1.67;;;31.10;31.30;;;;;;2220223;62;20423;-55
2023/08/17 08:32:06;0.00;0.00;0.62;0.00;0.00;0.62;2.43;1.70;;;31.10;31.30;;;;;;2219801;62;20911;-57
2023/08/17 08:34:52;0.00;0.00;0.62;0.00;0.00;0.62;2.97;1.70;;;31.10;31.30;;;;;;2220155;62;20995;-56
2023/08/17 08:37:36;0.00;0.00;0.62;0.00;0.00;0.62;2.40;1.90;;;31.10;31.30;;;;;;2220535;62;20381;-57
2023/08/17 08:40:27;0.00;0.00;0.62;0.00;0.00;0.62;2.13;1.90;;;31.20;31.40;;;;;;2219939;62;20399;-57
2023/08/17 08:43:11;0.00;0.00;0.62;0.00;0.00;0.62;2.00;1.80;;;31.20;31.40;;;;;;2220222;62;20928;-56
2023/08/17 08:45:58;0.00;0.00;0.62;0.00;0.00;0.62;2.50;1.80;;;31.20;31.40;;;;;;2219557;62;20374;-60
2023/08/17 08:48:44;0.00;0.00;0.62;0.00;0.00;0.62;2.53;1.97;;;31.10;31.30;;;;;;2220587;62;21017;-58
2023/08/17 08:51:33;0.00;0.00;0.62;0.00;0.00;0.62;2.43;2.13;;;31.10;31.40;;;;;;2220535;62;20438;-55
2023/08/17 08:54:24;0.00;0.00;0.62;0.00;0.00;0.62;2.73;2.33;;;31.10;31.40;;;;;;2219251;62;20402;-60
2023/08/17 08:57:13;0.00;0.00;0.62;0.00;0.00;0.62;2.20;1.77;;;31.10;31.40;;;;;;2220622;62;20374;-58
2023/08/17 08:59:59;0.00;0.00;0.62;0.00;0.00;0.62;2.30;1.87;;;31.10;31.40;;;;;;2220570;62;20936;-59
2023/08/17 09:02:44;0.00;0.00;0.62;0.00;0.00;0.62;2.17;1.93;;;31.10;31.40;;;;;;2219909;62;20382;-58
2023/08/17 09:05:31;0.00;0.00;0.62;0.00;0.00;0.62;1.87;1.60;;;31.10;31.40;;;;;;2220434;62;20523;-58
2023/08/17 09:08:22;0.00;0.00;0.62;0.00;0.00;0.62;2.80;2.20;;;31.10;31.50;;;;;;2219465;62;20377;-54
2023/08/17 09:11:07;0.00;0.00;0.62;0.00;0.00;0.62;2.10;1.90;;;31.20;31.50;;;;;;2220769;62;20637;-57
2023/08/17 09:13:54;0.00;0.00;0.62;0.00;0.00;0.62;2.20;1.97;;;31.10;31.50;;;;;;2220056;62;20385;-55
2023/08/17 09:16:39;0.00;0.00;0.62;0.00;0.00;0.62;1.70;1.50;;;31.10;31.50;;;;;;2219773;62;20397;-57
2023/08/17 09:19:24;0.00;0.00;0.62;0.00;0.00;0.62;3.00;1.80;;;31.10;31.50;;;;;;2220374;62;20455;-58
2023/08/17 09:22:08;0.00;0.00;0.62;0.00;0.00;0.62;1.87;1.60;;;31.10;31.50;;;;;;2220104;62;20374;-58
2023/08/17 09:24:54;0.00;0.00;0.62;0.00;0.00;0.62;2.37;1.90;;;31.10;31.50;;;;;;2219436;62;20390;-57
2023/08/17 09:27:41;0.00;0.00;0.62;0.00;0.00;0.62;1.80;1.60;;;31.10;31.50;;;;;;2220665;62;20895;-59
2023/08/17 09:30:26;0.00;0.00;0.62;0.00;0.00;0.62;1.83;1.57;;;31.10;31.50;;;;;;2219618;62;20889;-60
2023/08/17 09:33:11;0.00;0.00;0.62;0.00;0.00;0.62;2.10;1.70;;;31.10;31.60;;;;;;2220005;62;20883;-60
2023/08/17 09:35:57;0.00;0.00;0.62;0.00;0.00;0.62;2.23;1.87;;;31.10;31.60;;;;;;2220529;62;20431;-60
2023/08/17 09:38:41;0.00;0.00;0.62;0.00;0.00;0.62;2.00;1.50;;;31.10;31.60;;;;;;2219518;62;20373;-61
2023/08/17 09:41:28;0.00;0.00;0.62;0.00;0.00;0.62;1.60;1.30;;;31.10;31.50;;;;;;2220945;62;20398;-59
2023/08/17 09:44:12;0.00;0.00;0.62;0.00;0.00;0.62;1.80;1.63;;;31.10;31.50;;;;;;2220952;62;20393;-60
2023/08/17 09:46:57;0.00;0.00;0.62;0.00;0.00;0.62;2.90;1.77;;;31.10;31.60;;;;;;2220478;62;20389;-57
2023/08/17 09:49:42;0.00;0.00;0.62;0.00;0.00;0.62;2.37;1.37;;;31.10;31.70;;;;;;2220961;62;20390;-59
2023/08/17 09:52:27;0.00;0.00;0.62;0.00;0.00;0.62;1.90;1.47;;;31.10;31.50;;;;;;2220299;62;20967;-60
2023/08/17 09:55:12;0.00;0.00;0.62;0.00;0.00;0.62;1.93;1.40;;;31.10;31.50;;;;;;2220894;62;20454;-63
2023/08/17 09:57:59;0.00;0.00;0.62;0.00;0.00;0.62;1.80;1.30;;;31.10;31.50;;;;;;2220946;62;20373;-60
2023/08/17 10:00:49;0.00;0.00;0.62;0.00;0.00;0.62;1.70;1.17;;;31.10;31.50;;;;;;2220201;62;20405;-60
2023/08/17 10:03:35;0.00;0.00;0.62;0.00;0.00;0.62;1.70;1.13;;;31.10;31.50;;;;;;2220599;62;20458;-60
2023/08/17 10:06:26;0.00;0.00;0.62;0.00;0.00;0.62;1.90;1.43;;;31.10;31.50;;;;;;2221277;62;20838;-60
2023/08/17 10:09:13;0.00;0.00;0.62;0.00;0.00;0.62;1.53;1.23;;;31.10;31.50;;;;;;2220108;62;20413;-59
2023/08/17 10:12:04;0.00;0.00;0.62;0.00;0.00;0.62;1.87;1.40;;;31.10;31.50;;;;;;2221248;62;20923;-60
2023/08/17 10:14:59;0.00;0.00;0.62;0.00;0.00;0.62;1.83;1.53;;;31.10;31.40;;;;;;2219553;62;20434;-59
2023/08/17 10:18:02;0.00;0.00;0.62;0.00;0.00;0.62;1.63;1.10;;;31.10;31.50;;;;;;2221154;62;20418;-60
2023/08/17 10:20:59;0.00;0.00;0.62;0.00;0.00;0.62;1.70;1.30;;;31.10;31.40;;;;;;2221049;62;20442;-60
2023/08/17 10:23:46;0.00;0.00;0.62;0.00;0.00;0.62;1.60;1.17;;;31.10;31.50;;;;;;2219982;62;20390;-60
2023/08/17 10:26:33;0.00;0.00;0.62;0.00;0.00;0.62;1.90;1.40;;;31.10;31.40;;;;;;2221057;62;20369;-59
2023/08/17 10:29:18;0.00;0.00;0.62;0.00;0.00;0.62;1.57;1.20;;;31.10;31.50;;;;;;2220538;62;20426;-59
2023/08/17 10:32:06;0.00;0.00;0.62;0.00;0.00;0.62;1.50;1.20;;;31.10;31.40;;;;;;2221161;62;20390;-60
2023/08/17 10:34:53;0.00;0.00;0.62;0.00;0.00;0.62;1.70;1.23;;;31.10;31.40;;;;;;2220750;62;20394;-61
2023/08/17 10:37:38;0.00;0.00;0.62;0.00;0.00;0.62;2.27;1.50;;;31.10;31.40;;;;;;2220190;62;20413;-60
2023/08/17 10:40:27;0.00;0.00;0.62;0.00;0.00;0.62;2.60;1.23;;;31.10;31.40;;;;;;2221114;62;20501;-59
2023/08/17 10:43:12;0.00;0.00;0.62;0.00;0.00;0.62;1.60;1.20;;;31.10;31.40;;;;;;2220742;62;20458;-55
2023/08/17 10:46:15;0.00;0.00;0.62;0.00;0.00;0.62;1.73;1.30;;;31.10;31.40;;;;;;2220017;62;20374;-62
2023/08/17 10:49:06;0.00;0.00;0.62;0.00;0.00;0.62;2.03;1.37;;;31.00;31.30;;;;;;2220938;62;20390;-60
2023/08/17 10:52:02;0.00;0.00;0.62;0.00;0.00;0.62;1.83;1.40;;;31.10;31.30;;;;;;2219723;62;20782;-58
2023/08/17 10:54:48;0.00;0.00;0.62;0.00;0.00;0.62;1.87;1.50;;;31.10;31.30;;;;;;2220163;62;20394;-60